NA03 weather

Boll Brothers Airstrip
Russell, North Dakota, United States

Public forecast

Using degrees Fahrenheit for public forecast. Weather courtesy of forecast.io.

METAR (pilot weather report)

Closest report is Minot Air Force Base, 25.2 nm (46.6 km) SW. Retrieved 2019/09/15 07:56 UTC (45 minutes ago):

KMIB 150756Z AUTO 22006KT 10SM CLR 13/07 A2985 RMK AO2 SLP110 T01250074 $

TAF (pilot weather forecast)

Forecast is more than 12 hours old.

Closest forecast is Minot Air Force Base, 25.2 nm (46.6 km) SW. Retrieved 2019/09/13 17:09 UTC (2 days ago):

TAF KMIB 131700Z 1317/1423 30012KT 9999 BKN010 QNH2993INS BECMG 1323/1324 24012KT 9999 SKC QNH2976INS TX23/1320Z TN11/1411Z